首页
METAR-TAF:

METAR-TAF

机场 :

仁川國際機場

仁川国际机场, 大韩民国

纬度: 37-28N, 经度: 126-27E, 海拔: 7米

当前天气观测

该预报发布于20分钟前的05:00 UTC
风速4节,风向北转西北,在之间变化
温度 14°C
湿度 44%
气压 1023 hPa
能见度10公里或以上
1500米以下无云,无积雨云

METAR: RKSI 140500Z 34004KT 360V100 CAVOK 14/02 Q1023 NOSIG

时间: 14:20 (05:20 UTC)

预报

该预报发布于6小时和20分钟前的23:00 UTC
预报有效从14日的 00点(UTC)到 15日的 06点(UTC)
风速5节,风向东转东北
能见度10公里或以上
1500米以下无云,无积雨云
短暂存在
从 14日的 04点(UTC)到 14日的 10点(UTC)
风速6节,风向西北
成为
从 14日的 19点(UTC)到 14日的 20点(UTC)
能見度: 4200
少量云层高于3000英尺
散云层高于18000英尺
轻雾
成为
从 14日的 23点(UTC)到 14日的 24点(UTC)
风速6节,风向南转南东
能見度: 6000
成为
从 15日的 04点(UTC)到 15日的 05点(UTC)
风速6节,风向西

TAF: RKSI 132300Z 1400/1506 07005KT CAVOK TX15/1405Z TN06/1421Z TX14/1505Z TEMPO 1404/1410 31006KT BECMG 1419/1420 4200 BR FEW030 SCT180 BECMG 1423/1424 15006KT 6000 NSW BECMG 1504/1505 28006KT

超过4000个机场的气象观测和天气预报(METAR&TAF报告)。

可查询的气象台以黄色和红色小点在地图上表示。

将鼠标移到小点上方,可查看气象台名称。

然后点击查看天气观测和预报。

如需切换地图:点击带黑十字的绿色按钮放大地图;点击带横线的绿色按钮缩小地图;或者点击绿色箭头查看邻近地区的地图。


METAR-TAF: